Terminal Aerodrome Forecast
Issued by NWS Cleveland, OH

Home | Current Version | Previous Version | Graphics & Text | Print | Product List | Glossary On
Versions: 1 2 3 4 5 6 7 8 9 10 11 12 13 14 15 16 17 18
000
FTUS41 KCLE 190529
TAFERI
TAF
KERI 190529Z 1906/2006 13010G18KT P6SM -SHRA OVC070
     FM190900 14015G30KT P6SM VCSH OVC035
     FM191500 17015G25KT P6SM OVC050
     FM192000 18012G20KT P6SM -SHRA OVC035
     FM200300 21012KT P6SM -SHRA OVC025=

USA.gov is the U.S. government's official web portal to all federal, state and local government web resources and services.